sensor_id;sensor_type;location;lat;lon;timestamp;pressure;altitude;pressure_sealevel;temperature;humidity
37064;BME280;23211;53.912;9.138;2023-01-01T00:00:45;100314.56;;;18.53;55.94
37064;BME280;23211;53.912;9.138;2023-01-01T00:03:31;100309.94;;;18.53;55.76
37064;BME280;23211;53.912;9.138;2023-01-01T00:06:17;100320.78;;;18.53;55.72
37064;BME280;23211;53.912;9.138;2023-01-01T00:09:03;100344.09;;;18.54;55.67
37064;BME280;23211;53.912;9.138;2023-01-01T00:12:07;100318.41;;;18.52;55.52
37064;BME280;23211;53.912;9.138;2023-01-01T00:14:53;100330.84;;;18.53;55.46
37064;BME280;23211;53.912;9.138;2023-01-01T00:17:40;100337.06;;;18.53;55.40
37064;BME280;23211;53.912;9.138;2023-01-01T00:20:26;100346.50;;;18.56;55.25
37064;BME280;23211;53.912;9.138;2023-01-01T00:23:12;100350.00;;;18.56;55.35
37064;BME280;23211;53.912;9.138;2023-01-01T00:25:58;100362.47;;;18.57;55.04
37064;BME280;23211;53.912;9.138;2023-01-01T00:28:44;100350.50;;;18.58;55.10
37064;BME280;23211;53.912;9.138;2023-01-01T00:31:31;100342.34;;;18.58;54.89
37064;BME280;23211;53.912;9.138;2023-01-01T00:34:16;100347.47;;;18.60;55.00
37064;BME280;23211;53.912;9.138;2023-01-01T00:37:02;100353.69;;;18.60;54.81
37064;BME280;23211;53.912;9.138;2023-01-01T00:39:48;100366.16;;;18.61;54.65
37064;BME280;23211;53.912;9.138;2023-01-01T00:42:34;100356.13;;;18.62;54.75
37064;BME280;23211;53.912;9.138;2023-01-01T00:45:20;100346.06;;;18.62;55.04
37064;BME280;23211;53.912;9.138;2023-01-01T00:48:06;100358.50;;;18.63;54.81
37064;BME280;23211;53.912;9.138;2023-01-01T00:50:52;100363.94;;;18.63;54.78
37064;BME280;23211;53.912;9.138;2023-01-01T00:53:38;100358.50;;;18.63;54.63
37064;BME280;23211;53.912;9.138;2023-01-01T00:56:24;100356.13;;;18.62;54.29
37064;BME280;23211;53.912;9.138;2023-01-01T00:59:10;100373.50;;;18.61;54.36
37064;BME280;23211;53.912;9.138;2023-01-01T01:01:56;100358.31;;;18.60;54.32
37064;BME280;23211;53.912;9.138;2023-01-01T01:04:42;100356.41;;;18.60;54.41
37064;BME280;23211;53.912;9.138;2023-01-01T01:07:34;100372.19;;;18.58;54.23
37064;BME280;23211;53.912;9.138;2023-01-01T01:10:20;100377.63;;;18.58;54.52
37064;BME280;23211;53.912;9.138;2023-01-01T01:13:06;100371.09;;;18.59;54.26
37064;BME280;23211;53.912;9.138;2023-01-01T01:15:52;100377.31;;;18.60;54.36
37064;BME280;23211;53.912;9.138;2023-01-01T01:18:38;100373.50;;;18.61;54.59
37064;BME280;23211;53.912;9.138;2023-01-01T01:21:26;100366.16;;;18.61;54.20
37064;BME280;23211;53.912;9.138;2023-01-01T01:24:12;100356.91;;;18.62;54.24
37064;BME280;23211;53.912;9.138;2023-01-01T01:26:57;100366.97;;;18.62;53.88
37064;BME280;23211;53.912;9.138;2023-01-01T01:29:43;100371.59;;;18.61;53.86
37064;BME280;23211;53.912;9.138;2023-01-01T01:32:29;100379.22;;;18.59;53.76
37064;BME280;23211;53.912;9.138;2023-01-01T01:35:15;100383.84;;;18.59;53.79
37064;BME280;23211;53.912;9.138;2023-01-01T01:38:01;100395.03;;;18.57;53.64
37064;BME280;23211;53.912;9.138;2023-01-01T01:40:47;100386.88;;;18.57;53.94
37064;BME280;23211;53.912;9.138;2023-01-01T01:49:17;100400.44;;;18.57;53.84
37064;BME280;23211;53.912;9.138;2023-01-01T01:52:06;100416.09;;;18.60;54.03
37064;BME280;23211;53.912;9.138;2023-01-01T01:54:52;100416.09;;;18.60;53.75
37064;BME280;23211;53.912;9.138;2023-01-01T01:57:39;100383.53;;;18.60;53.89
37064;BME280;23211;53.912;9.138;2023-01-01T02:00:25;100419.91;;;18.59;53.97
37064;BME280;23211;53.912;9.138;2023-01-01T02:03:15;100425.34;;;18.59;54.03
37064;BME280;23211;53.912;9.138;2023-01-01T02:06:03;100415.59;;;18.58;53.98
37064;BME280;23211;53.912;9.138;2023-01-01T02:08:49;100408.59;;;18.57;53.93
37064;BME280;23211;53.912;9.138;2023-01-01T02:11:36;100432.53;;;18.55;53.85
37064;BME280;23211;53.912;9.138;2023-01-01T02:14:21;100433.63;;;18.54;54.10
37064;BME280;23211;53.912;9.138;2023-01-01T02:17:12;100415.75;;;18.53;53.80
37064;BME280;23211;53.912;9.138;2023-01-01T02:29:21;100431.38;;;18.48;54.13
37064;BME280;23211;53.912;9.138;2023-01-01T02:35:19;100447.81;;;18.51;54.06
37064;BME280;23211;53.912;9.138;2023-01-01T02:38:26;100459.00;;;18.50;54.07
37064;BME280;23211;53.912;9.138;2023-01-01T02:41:29;100452.75;;;18.49;53.98
37064;BME280;23211;53.912;9.138;2023-01-01T02:44:17;100461.38;;;18.51;54.07
37064;BME280;23211;53.912;9.138;2023-01-01T02:47:14;100446.72;;;18.52;54.33
37064;BME280;23211;53.912;9.138;2023-01-01T02:50:10;100459.16;;;18.53;54.15
37064;BME280;23211;53.912;9.138;2023-01-01T02:55:51;100451.19;;;18.57;53.74
37064;BME280;23211;53.912;9.138;2023-01-01T02:58:51;100446.09;;;18.55;54.11
37064;BME280;23211;53.912;9.138;2023-01-01T03:02:23;100461.88;;;18.53;54.12
37064;BME280;23211;53.912;9.138;2023-01-01T03:08:29;100467.00;;;18.55;54.17
37064;BME280;23211;53.912;9.138;2023-01-01T03:11:17;100464.44;;;18.58;54.33
37064;BME280;23211;53.912;9.138;2023-01-01T03:14:15;100454.72;;;18.57;53.96
37064;BME280;23211;53.912;9.138;2023-01-01T03:17:14;100478.34;;;18.57;53.99
37064;BME280;23211;53.912;9.138;2023-01-01T03:20:11;100483.44;;;18.58;54.02
37064;BME280;23211;53.912;9.138;2023-01-01T03:23:02;100464.44;;;18.58;54.08
37064;BME280;23211;53.912;9.138;2023-01-01T03:25:53;100479.13;;;18.57;54.28
37064;BME280;23211;53.912;9.138;2023-01-01T03:29:01;100496.97;;;18.50;54.40
37064;BME280;23211;53.912;9.138;2023-01-01T03:31:51;100493.47;;;18.49;54.28
37064;BME280;23211;53.912;9.138;2023-01-01T03:34:42;100495.19;;;18.45;54.23
37064;BME280;23211;53.912;9.138;2023-01-01T03:37:29;100514.00;;;18.42;54.61
37064;BME280;23211;53.912;9.138;2023-01-01T03:40:20;100505.69;;;18.38;54.63
37064;BME280;23211;53.912;9.138;2023-01-01T03:43:13;100517.47;;;18.33;54.71
37064;BME280;23211;53.912;9.138;2023-01-01T03:46:03;100492.56;;;18.31;54.88
37064;BME280;23211;53.912;9.138;2023-01-01T03:48:50;100511.38;;;18.28;54.88
37064;BME280;23211;53.912;9.138;2023-01-01T03:55:07;100512.75;;;18.17;54.92
37064;BME280;23211;53.912;9.138;2023-01-01T03:58:00;100501.72;;;18.13;55.29
37064;BME280;23211;53.912;9.138;2023-01-01T04:01:26;100524.66;;;18.07;55.52
37064;BME280;23211;53.912;9.138;2023-01-01T04:04:15;100521.31;;;18.10;55.51
37064;BME280;23211;53.912;9.138;2023-01-01T04:07:02;100510.47;;;18.10;55.49
37064;BME280;23211;53.912;9.138;2023-01-01T04:09:49;100494.22;;;18.10;55.35
37064;BME280;23211;53.912;9.138;2023-01-01T04:12:36;100510.16;;;18.12;55.66
37064;BME280;23211;53.912;9.138;2023-01-01T04:15:24;100502.03;;;18.12;55.59
37064;BME280;23211;53.912;9.138;2023-01-01T04:18:10;100505.22;;;18.14;55.60
37064;BME280;23211;53.912;9.138;2023-01-01T04:20:56;100503.63;;;18.13;55.52
37064;BME280;23211;53.912;9.138;2023-01-01T04:23:42;100504.44;;;18.13;55.65
37064;BME280;23211;53.912;9.138;2023-01-01T04:26:28;100504.44;;;18.13;55.64
37064;BME280;23211;53.912;9.138;2023-01-01T04:29:14;100526.44;;;18.12;55.47
37064;BME280;23211;53.912;9.138;2023-01-01T04:31:59;100522.44;;;18.09;55.61
37064;BME280;23211;53.912;9.138;2023-01-01T04:34:45;100529.44;;;18.10;55.56
37064;BME280;23211;53.912;9.138;2023-01-01T04:37:31;100527.06;;;18.09;55.57
37064;BME280;23211;53.912;9.138;2023-01-01T04:40:17;100528.97;;;18.08;55.71
37064;BME280;23211;53.912;9.138;2023-01-01T04:43:03;100543.31;;;18.09;55.71
37064;BME280;23211;53.912;9.138;2023-01-01T04:45:56;100556.38;;;18.07;55.40
37064;BME280;23211;53.912;9.138;2023-01-01T04:48:42;100551.44;;;18.09;55.66
37064;BME280;23211;53.912;9.138;2023-01-01T04:51:28;100553.34;;;18.08;55.64
37064;BME280;23211;53.912;9.138;2023-01-01T04:54:14;100552.56;;;18.08;55.65
37064;BME280;23211;53.912;9.138;2023-01-01T04:57:00;100545.53;;;18.07;55.61
37064;BME280;23211;53.912;9.138;2023-01-01T04:59:45;100536.91;;;18.04;55.55
37064;BME280;23211;53.912;9.138;2023-01-01T05:02:31;100544.56;;;18.02;55.71
37064;BME280;23211;53.912;9.138;2023-01-01T05:05:17;100529.69;;;18.00;55.67
37064;BME280;23211;53.912;9.138;2023-01-01T05:08:03;100519.66;;;18.00;55.73
37064;BME280;23211;53.912;9.138;2023-01-01T05:10:49;100532.41;;;18.00;55.86
37064;BME280;23211;53.912;9.138;2023-01-01T05:13:36;100560.31;;;18.00;55.82
37064;BME280;23211;53.912;9.138;2023-01-01T05:16:25;100545.16;;;17.99;55.70
37064;BME280;23211;53.912;9.138;2023-01-01T05:19:11;100572.88;;;17.96;55.79
37064;BME280;23211;53.912;9.138;2023-01-01T05:21:58;100563.16;;;17.95;55.91
37064;BME280;23211;53.912;9.138;2023-01-01T05:24:44;100574.00;;;17.95;56.07
37064;BME280;23211;53.912;9.138;2023-01-01T05:27:30;100575.91;;;17.95;55.90
37064;BME280;23211;53.912;9.138;2023-01-01T05:30:17;100576.72;;;17.95;55.97
37064;BME280;23211;53.912;9.138;2023-01-01T05:33:03;100586.75;;;17.95;55.85
37064;BME280;23211;53.912;9.138;2023-01-01T05:35:53;100574.13;;;17.90;55.79
37064;BME280;23211;53.912;9.138;2023-01-01T05:38:39;100591.50;;;17.89;55.87
37064;BME280;23211;53.912;9.138;2023-01-01T05:41:25;100597.22;;;17.88;55.64
37064;BME280;23211;53.912;9.138;2023-01-01T05:44:11;100604.66;;;17.82;55.77
37064;BME280;23211;53.912;9.138;2023-01-01T05:46:57;100622.63;;;17.78;55.88
37064;BME280;23211;53.912;9.138;2023-01-01T05:49:43;100608.59;;;17.76;55.98
37064;BME280;23211;53.912;9.138;2023-01-01T05:52:28;100604.88;;;17.72;55.93
37064;BME280;23211;53.912;9.138;2023-01-01T05:55:14;100627.16;;;17.69;56.20
37064;BME280;23211;53.912;9.138;2023-01-01T05:58:00;100614.50;;;17.64;56.36
37064;BME280;23211;53.912;9.138;2023-01-01T06:00:46;100632.97;;;17.62;56.40
37064;BME280;23211;53.912;9.138;2023-01-01T06:03:32;100635.19;;;17.60;56.39
37064;BME280;23211;53.912;9.138;2023-01-01T06:06:20;100645.22;;;17.60;56.48
37064;BME280;23211;53.912;9.138;2023-01-01T06:09:08;100634.97;;;17.57;56.66
37064;BME280;23211;53.912;9.138;2023-01-01T06:11:54;100641.50;;;17.56;56.75
37064;BME280;23211;53.912;9.138;2023-01-01T06:14:40;100638.78;;;17.56;56.93
37064;BME280;23211;53.912;9.138;2023-01-01T06:17:26;100645.81;;;17.57;56.96
37064;BME280;23211;53.912;9.138;2023-01-01T06:20:11;100648.81;;;17.55;56.91
37064;BME280;23211;53.912;9.138;2023-01-01T06:22:57;100656.16;;;17.55;56.77
37064;BME280;23211;53.912;9.138;2023-01-01T06:25:43;100644.81;;;17.53;56.92
37064;BME280;23211;53.912;9.138;2023-01-01T06:28:29;100652.94;;;17.53;56.90
37064;BME280;23211;53.912;9.138;2023-01-01T06:31:17;100660.25;;;17.52;56.93
37064;BME280;23211;53.912;9.138;2023-01-01T06:34:03;100657.06;;;17.50;57.05
37064;BME280;23211;53.912;9.138;2023-01-01T06:36:49;100673.31;;;17.50;57.18
37064;BME280;23211;53.912;9.138;2023-01-01T06:39:35;100666.78;;;17.51;57.18
37064;BME280;23211;53.912;9.138;2023-01-01T06:42:21;100659.47;;;17.52;57.19
37064;BME280;23211;53.912;9.138;2023-01-01T06:45:07;100655.66;;;17.53;57.20
37064;BME280;23211;53.912;9.138;2023-01-01T06:47:53;100651.84;;;17.54;57.12
37064;BME280;23211;53.912;9.138;2023-01-01T06:50:39;100658.34;;;17.53;57.25
37064;BME280;23211;53.912;9.138;2023-01-01T06:53:25;100668.41;;;17.52;57.26
37064;BME280;23211;53.912;9.138;2023-01-01T06:56:11;100660.88;;;17.49;57.11
37064;BME280;23211;53.912;9.138;2023-01-01T06:58:58;100675.50;;;17.48;57.15
37064;BME280;23211;53.912;9.138;2023-01-01T07:01:44;100681.22;;;17.47;57.32
37064;BME280;23211;53.912;9.138;2023-01-01T07:04:30;100683.94;;;17.47;57.33
37064;BME280;23211;53.912;9.138;2023-01-01T07:07:15;100689.34;;;17.47;57.29
37064;BME280;23211;53.912;9.138;2023-01-01T07:10:01;100687.75;;;17.46;57.52
37064;BME280;23211;53.912;9.138;2023-01-01T07:12:47;100685.53;;;17.48;57.51
37064;BME280;23211;53.912;9.138;2023-01-01T07:15:33;100700.69;;;17.49;57.59
37064;BME280;23211;53.912;9.138;2023-01-01T07:18:19;100708.53;;;17.50;57.47
37064;BME280;23211;53.912;9.138;2023-01-01T07:21:06;100713.63;;;17.52;57.42
37064;BME280;23211;53.912;9.138;2023-01-01T07:24:09;100724.78;;;17.50;57.41
37064;BME280;23211;53.912;9.138;2023-01-01T07:26:55;100733.09;;;17.54;57.44
37064;BME280;23211;53.912;9.138;2023-01-01T07:29:41;100733.59;;;17.56;57.31
37064;BME280;23211;53.912;9.138;2023-01-01T07:32:27;100757.69;;;17.57;57.25
37064;BME280;23211;53.912;9.138;2023-01-01T07:35:13;100757.91;;;17.61;57.14
37064;BME280;23211;53.912;9.138;2023-01-01T07:37:58;100757.59;;;17.62;57.18
37064;BME280;23211;53.912;9.138;2023-01-01T07:40:44;100756.19;;;17.65;57.07
37064;BME280;23211;53.912;9.138;2023-01-01T07:43:30;100772.19;;;17.66;57.01
37064;BME280;23211;53.912;9.138;2023-01-01T07:46:16;100766.47;;;17.68;56.97
37064;BME280;23211;53.912;9.138;2023-01-01T07:49:03;100766.16;;;17.69;56.78
37064;BME280;23211;53.912;9.138;2023-01-01T07:51:49;100764.84;;;17.67;56.68
37064;BME280;23211;53.912;9.138;2023-01-01T07:54:35;100764.31;;;17.65;56.50
37064;BME280;23211;53.912;9.138;2023-01-01T07:57:21;100766.22;;;17.64;56.50
37064;BME280;23211;53.912;9.138;2023-01-01T08:00:08;100772.25;;;17.61;56.17
37064;BME280;23211;53.912;9.138;2023-01-01T08:02:58;100783.69;;;17.58;56.19
37064;BME280;23211;53.912;9.138;2023-01-01T08:05:44;100799.72;;;17.55;55.99
37064;BME280;23211;53.912;9.138;2023-01-01T08:08:29;100805.44;;;17.53;55.92
37064;BME280;23211;53.912;9.138;2023-01-01T08:11:15;100811.97;;;17.52;55.89
37064;BME280;23211;53.912;9.138;2023-01-01T08:14:01;100820.38;;;17.51;55.82
37064;BME280;23211;53.912;9.138;2023-01-01T08:16:47;100832.31;;;17.50;55.74
37064;BME280;23211;53.912;9.138;2023-01-01T08:19:33;100830.72;;;17.49;55.82
37064;BME280;23211;53.912;9.138;2023-01-01T08:22:18;100832.91;;;17.47;55.66
37064;BME280;23211;53.912;9.138;2023-01-01T08:25:05;100846.75;;;17.45;55.66
37064;BME280;23211;53.912;9.138;2023-01-01T08:27:50;100864.91;;;17.45;55.58
37064;BME280;23211;53.912;9.138;2023-01-01T08:30:36;100869.81;;;17.43;55.33
37064;BME280;23211;53.912;9.138;2023-01-01T08:33:22;100871.22;;;17.40;55.31
37064;BME280;23211;53.912;9.138;2023-01-01T08:36:11;100875.31;;;17.37;54.83
37064;BME280;23211;53.912;9.138;2023-01-01T08:38:58;100881.03;;;17.36;54.91
37064;BME280;23211;53.912;9.138;2023-01-01T08:41:44;100890.56;;;17.33;54.77
37064;BME280;23211;53.912;9.138;2023-01-01T08:44:30;100901.38;;;17.33;54.81
37064;BME280;23211;53.912;9.138;2023-01-01T08:47:21;100904.69;;;17.30;54.67
37064;BME280;23211;53.912;9.138;2023-01-01T08:50:07;100922.53;;;17.31;54.60
37064;BME280;23211;53.912;9.138;2023-01-01T08:52:53;100922.53;;;17.31;54.53
37064;BME280;23211;53.912;9.138;2023-01-01T08:55:39;100936.09;;;17.31;54.64
37064;BME280;23211;53.912;9.138;2023-01-01T08:58:25;100931.47;;;17.32;54.54
37064;BME280;23211;53.912;9.138;2023-01-01T09:01:11;100941.50;;;17.31;54.24
37064;BME280;23211;53.912;9.138;2023-01-01T09:03:57;100945.81;;;17.32;54.57
37064;BME280;23211;53.912;9.138;2023-01-01T09:06:43;100945.31;;;17.30;54.25
37064;BME280;23211;53.912;9.138;2023-01-01T09:09:29;100943.69;;;17.29;54.29
37064;BME280;23211;53.912;9.138;2023-01-01T09:12:15;100955.63;;;17.28;54.16
37064;BME280;23211;53.912;9.138;2023-01-01T09:15:01;100983.00;;;17.27;54.27
37064;BME280;23211;53.912;9.138;2023-01-01T09:17:47;100975.16;;;17.25;54.22
37064;BME280;23211;53.912;9.138;2023-01-01T09:20:33;100987.91;;;17.25;54.31
37064;BME280;23211;53.912;9.138;2023-01-01T09:23:19;100996.84;;;17.25;54.46
37064;BME280;23211;53.912;9.138;2023-01-01T09:26:07;101000.34;;;17.26;54.37
37064;BME280;23211;53.912;9.138;2023-01-01T09:28:53;101003.84;;;17.26;54.19
37064;BME280;23211;53.912;9.138;2023-01-01T09:31:39;101004.66;;;17.27;54.19
37064;BME280;23211;53.912;9.138;2023-01-01T09:34:25;101018.50;;;17.25;53.91
37064;BME280;23211;53.912;9.138;2023-01-01T09:37:11;101009.56;;;17.25;54.07
37064;BME280;23211;53.912;9.138;2023-01-01T09:39:57;101026.09;;;17.23;53.94
37064;BME280;23211;53.912;9.138;2023-01-01T09:42:50;101002.84;;;17.22;53.91
37064;BME280;23211;53.912;9.138;2023-01-01T09:45:55;101016.66;;;17.21;53.77
37064;BME280;23211;53.912;9.138;2023-01-01T09:48:55;101019.94;;;17.18;53.79
37064;BME280;23211;53.912;9.138;2023-01-01T09:51:48;101036.41;;;17.21;53.83
37064;BME280;23211;53.912;9.138;2023-01-01T09:54:39;101054.00;;;17.24;53.87
37064;BME280;23211;53.912;9.138;2023-01-01T09:57:28;101050.19;;;17.25;53.68
37064;BME280;23211;53.912;9.138;2023-01-01T10:00:17;101060.72;;;17.26;53.49
37064;BME280;23211;53.912;9.138;2023-01-01T10:06:23;101079.75;;;17.21;53.53
37064;BME280;23211;53.912;9.138;2023-01-01T10:09:26;101087.88;;;17.21;53.51
37064;BME280;23211;53.912;9.138;2023-01-01T10:12:41;101072.50;;;17.17;53.28
37064;BME280;23211;53.912;9.138;2023-01-01T10:15:37;101077.91;;;17.17;53.28
37064;BME280;23211;53.912;9.138;2023-01-01T10:18:27;101075.19;;;17.17;53.53
37064;BME280;23211;53.912;9.138;2023-01-01T10:21:20;101070.06;;;17.15;53.47
37064;BME280;23211;53.912;9.138;2023-01-01T10:27:35;101087.69;;;17.13;53.60
37064;BME280;23211;53.912;9.138;2023-01-01T10:30:22;101083.38;;;17.12;53.55
37064;BME280;23211;53.912;9.138;2023-01-01T10:33:12;101083.38;;;17.12;53.52
37064;BME280;23211;53.912;9.138;2023-01-01T10:35:58;101088.50;;;17.13;53.67
37064;BME280;23211;53.912;9.138;2023-01-01T10:38:46;101072.25;;;17.13;53.41
37064;BME280;23211;53.912;9.138;2023-01-01T10:41:33;101075.78;;;17.14;53.47
37064;BME280;23211;53.912;9.138;2023-01-01T10:44:29;101085.00;;;17.13;53.40
37064;BME280;23211;53.912;9.138;2023-01-01T10:50:09;101069.50;;;17.18;53.50
37064;BME280;23211;53.912;9.138;2023-01-01T10:52:55;101075.44;;;17.20;53.54
37064;BME280;23211;53.912;9.138;2023-01-01T10:55:41;101076.47;;;17.24;53.59
37064;BME280;23211;53.912;9.138;2023-01-01T10:58:34;101088.09;;;17.25;53.48
37064;BME280;23211;53.912;9.138;2023-01-01T11:01:27;101108.38;;;17.27;53.42
37064;BME280;23211;53.912;9.138;2023-01-01T11:06:59;101086.06;;;17.35;53.52
37064;BME280;23211;53.912;9.138;2023-01-01T11:09:47;101100.41;;;17.36;53.20
37064;BME280;23211;53.912;9.138;2023-01-01T11:12:35;101108.25;;;17.37;53.09
37064;BME280;23211;53.912;9.138;2023-01-01T11:18:22;101110.44;;;17.35;53.07
37064;BME280;23211;53.912;9.138;2023-01-01T11:21:18;101115.34;;;17.33;52.92
37064;BME280;23211;53.912;9.138;2023-01-01T11:24:18;101114.31;;;17.29;52.79
37064;BME280;23211;53.912;9.138;2023-01-01T11:30:33;101129.88;;;17.19;53.07
37064;BME280;23211;53.912;9.138;2023-01-01T11:33:21;101135.22;;;17.24;53.01
37064;BME280;23211;53.912;9.138;2023-01-01T11:36:07;101117.06;;;17.24;52.92
37064;BME280;23211;53.912;9.138;2023-01-01T11:39:06;101114.94;;;17.21;53.03
37064;BME280;23211;53.912;9.138;2023-01-01T11:41:58;101121.97;;;17.22;53.02
37064;BME280;23211;53.912;9.138;2023-01-01T11:44:47;101116.28;;;17.24;52.87
37064;BME280;23211;53.912;9.138;2023-01-01T11:47:37;101110.06;;;17.23;52.82
37064;BME280;23211;53.912;9.138;2023-01-01T11:50:35;101114.94;;;17.21;52.88
37064;BME280;23211;53.912;9.138;2023-01-01T11:56:17;101136.31;;;17.23;52.81
37064;BME280;23211;53.912;9.138;2023-01-01T11:59:15;101114.94;;;17.21;52.69
37064;BME280;23211;53.912;9.138;2023-01-01T12:02:03;101133.63;;;17.23;52.72
37064;BME280;23211;53.912;9.138;2023-01-01T12:07:57;101137.72;;;17.20;52.71
37064;BME280;23211;53.912;9.138;2023-01-01T12:10:54;101134.47;;;17.18;52.69
37064;BME280;23211;53.912;9.138;2023-01-01T12:13:47;101158.84;;;17.18;52.81
37064;BME280;23211;53.912;9.138;2023-01-01T12:19:35;101168.34;;;17.16;52.56
37064;BME280;23211;53.912;9.138;2023-01-01T12:22:25;101186.78;;;17.14;52.65
37064;BME280;23211;53.912;9.138;2023-01-01T12:25:13;101176.53;;;17.11;52.69
37064;BME280;23211;53.912;9.138;2023-01-01T12:34:17;101171.75;;;17.02;52.70
37064;BME280;23211;53.912;9.138;2023-01-01T12:37:31;101161.44;;;17.04;52.84
37064;BME280;23211;53.912;9.138;2023-01-01T12:49:09;101178.47;;;17.05;53.20
37064;BME280;23211;53.912;9.138;2023-01-01T12:52:12;101199.84;;;17.06;53.12
37064;BME280;23211;53.912;9.138;2023-01-01T12:55:29;101210.41;;;17.08;53.36
37064;BME280;23211;53.912;9.138;2023-01-01T12:58:33;101208.16;;;17.15;53.22
37064;BME280;23211;53.912;9.138;2023-01-01T13:01:27;101223.03;;;17.18;53.26
37064;BME280;23211;53.912;9.138;2023-01-01T13:04:18;101219.75;;;17.21;53.16
37064;BME280;23211;53.912;9.138;2023-01-01T13:07:10;101204.81;;;17.23;53.11
37064;BME280;23211;53.912;9.138;2023-01-01T13:10:05;101209.38;;;17.28;53.21
37064;BME280;23211;53.912;9.138;2023-01-01T13:12:54;101212.31;;;17.31;53.10
37064;BME280;23211;53.912;9.138;2023-01-01T13:15:41;101224.50;;;17.34;53.10
37064;BME280;23211;53.912;9.138;2023-01-01T13:18:33;101221.19;;;17.37;52.90
37064;BME280;23211;53.912;9.138;2023-01-01T13:21:21;101223.34;;;17.40;53.03
37064;BME280;23211;53.912;9.138;2023-01-01T13:24:20;101224.72;;;17.37;52.64
37064;BME280;23211;53.912;9.138;2023-01-01T13:27:07;101231.75;;;17.38;52.80
37064;BME280;23211;53.912;9.138;2023-01-01T13:29:54;101248.28;;;17.37;52.83
37064;BME280;23211;53.912;9.138;2023-01-01T13:38:59;101259.47;;;17.30;52.75
37064;BME280;23211;53.912;9.138;2023-01-01T13:41:45;101260.56;;;17.29;52.92
37064;BME280;23211;53.912;9.138;2023-01-01T13:44:31;101276.00;;;17.29;52.63
37064;BME280;23211;53.912;9.138;2023-01-01T13:47:36;101277.94;;;17.23;52.71
37064;BME280;23211;53.912;9.138;2023-01-01T13:53:45;101279.38;;;17.16;52.53
37064;BME280;23211;53.912;9.138;2023-01-01T14:02:59;101281.34;;;17.05;52.50
37064;BME280;23211;53.912;9.138;2023-01-01T14:08:36;101274.38;;;16.99;52.40
37064;BME280;23211;53.912;9.138;2023-01-01T14:11:23;101279.25;;;16.97;52.61
37064;BME280;23211;53.912;9.138;2023-01-01T14:14:27;101296.63;;;16.91;52.50
37064;BME280;23211;53.912;9.138;2023-01-01T14:17:14;101300.13;;;16.91;52.51
37064;BME280;23211;53.912;9.138;2023-01-01T14:20:06;101297.72;;;16.90;52.39
37064;BME280;23211;53.912;9.138;2023-01-01T14:22:52;101299.38;;;16.86;52.53
37064;BME280;23211;53.912;9.138;2023-01-01T14:25:39;101307.50;;;16.86;52.48
37064;BME280;23211;53.912;9.138;2023-01-01T14:28:29;101306.97;;;16.84;52.40
37064;BME280;23211;53.912;9.138;2023-01-01T14:31:18;101307.53;;;16.81;52.48
37064;BME280;23211;53.912;9.138;2023-01-01T14:34:35;101313.78;;;16.76;52.45
37064;BME280;23211;53.912;9.138;2023-01-01T14:37:23;101316.75;;;16.74;52.43
37064;BME280;23211;53.912;9.138;2023-01-01T14:40:24;101310.56;;;16.69;52.48
37064;BME280;23211;53.912;9.138;2023-01-01T14:43:13;101329.00;;;16.67;52.65
37064;BME280;23211;53.912;9.138;2023-01-01T14:45:59;101329.53;;;16.64;52.75
37064;BME280;23211;53.912;9.138;2023-01-01T14:48:47;101321.69;;;16.62;52.67
37064;BME280;23211;53.912;9.138;2023-01-01T14:51:34;101329.28;;;16.60;52.71
37064;BME280;23211;53.912;9.138;2023-01-01T14:54:25;101343.06;;;16.59;52.84
37064;BME280;23211;53.912;9.138;2023-01-01T14:57:18;101345.25;;;16.57;52.86
37064;BME280;23211;53.912;9.138;2023-01-01T15:00:26;101355.28;;;16.51;53.00
37064;BME280;23211;53.912;9.138;2023-01-01T15:03:22;101352.31;;;16.53;52.97
37064;BME280;23211;53.912;9.138;2023-01-01T15:06:15;101356.34;;;16.55;52.87
37064;BME280;23211;53.912;9.138;2023-01-01T15:09:02;101346.88;;;16.58;53.04
37064;BME280;23211;53.912;9.138;2023-01-01T15:11:55;101350.13;;;16.55;52.84
37064;BME280;23211;53.912;9.138;2023-01-01T15:14:42;101357.16;;;16.56;52.68
37064;BME280;23211;53.912;9.138;2023-01-01T15:17:44;101359.06;;;16.50;52.82
37064;BME280;23211;53.912;9.138;2023-01-01T15:20:30;101358.28;;;16.50;52.86
37064;BME280;23211;53.912;9.138;2023-01-01T15:23:18;101356.94;;;16.47;52.65
37064;BME280;23211;53.912;9.138;2023-01-01T15:26:08;101355.06;;;16.42;52.56
37064;BME280;23211;53.912;9.138;2023-01-01T15:28:57;101358.31;;;16.39;52.70
37064;BME280;23211;53.912;9.138;2023-01-01T15:31:47;101357.78;;;16.37;52.73
37064;BME280;23211;53.912;9.138;2023-01-01T15:34:40;101354.81;;;16.34;52.76
37064;BME280;23211;53.912;9.138;2023-01-01T15:37:46;101349.72;;;16.27;52.96
37064;BME280;23211;53.912;9.138;2023-01-01T15:40:34;101358.34;;;16.29;52.95
37064;BME280;23211;53.912;9.138;2023-01-01T15:43:26;101367.84;;;16.27;52.97
37064;BME280;23211;53.912;9.138;2023-01-01T15:46:23;101366.75;;;16.23;53.09
37064;BME280;23211;53.912;9.138;2023-01-01T15:49:23;101355.13;;;16.22;53.26
37064;BME280;23211;53.912;9.138;2023-01-01T15:52:16;101355.13;;;16.22;53.19
37064;BME280;23211;53.912;9.138;2023-01-01T15:55:11;101357.03;;;16.22;53.08
37064;BME280;23211;53.912;9.138;2023-01-01T15:57:59;101358.94;;;16.21;53.34
37064;BME280;23211;53.912;9.138;2023-01-01T16:00:59;101370.56;;;16.17;53.25
37064;BME280;23211;53.912;9.138;2023-01-01T16:03:47;101373.28;;;16.17;53.24
37064;BME280;23211;53.912;9.138;2023-01-01T16:06:54;101394.09;;;16.11;53.14
37064;BME280;23211;53.912;9.138;2023-01-01T16:09:40;101387.34;;;16.14;53.25
37064;BME280;23211;53.912;9.138;2023-01-01T16:12:26;101398.16;;;16.14;52.97
37064;BME280;23211;53.912;9.138;2023-01-01T16:15:14;101395.44;;;16.14;53.12